Main page
METAR-TAF:

METAR-TAF

Airports :

Tallahassee International Airport

Tallahassee, Florida, United States

latitude: 30-23-35N, longitude: 084-21-12W, elevation: 79 ft

Current weather observation

The report was made 36 minutes ago, at 12:53 UTC
Wind 14 mph from the Northeast with gusts up to 21 mph
Temperature 66°F
Humidity 68%
Pressure 30.19 in. Hg
Visibility: 10 miles
Overcast at a height of 14000 ft

METAR: KTLH 211253Z 04012G18KT 10SM OVC140 19/13 A3019 RMK AO2 SLP223 T01890128

Time: 09:29 (13:29 UTC)

Forecast

The report was made 2 hours and 9 minutes ago, at 11:20 UTC
Forecast valid from 21 at 12 UTC to 22 at 12 UTC
Wind 14 mph from the East/Northeast with gusts up to 25 mph
Visibility: 6 miles
Overcast at a height of 12000 ft
From 22 at 0000 UTC
Wind 12 mph from the East/Northeast
Visibility: 6 miles
Broken clouds at a height of 25000 ft

TAF: KTLH 211120Z 2112/2212 06012G22KT P6SM OVC120 FM220000 06010KT P6SM BKN250

Weather observations and forecasts of more than 4000 airports (METAR and TAF reports).

The available stations are represented by yellow and red dots on the map.

Hover mouse over dot to see the name of the station.

Then click to see weather observations and forecasts.

To change the map : click on the green buttons with a black cross to zoom in, on the green button with a dash to zoom out, or on the green arrows for adjacent maps.


METAR-TAF: